Landers, California
Current Conditions -  °F | °C
As of 8:56 PM on Monday 22 Dec 2014 (Local Time) from KNXP Reporting Station
Clear Clear  
Wind Chill: 62°   Ceiling: Unl
Heat Index: 62°   Visibility: 10mi
Dew Point: 40°   Wind: 8mph
Humidity: 44%   Direction: 310°NW
Pressure: 30.16"   Gusts: NA
Location:  34.27°N, 116.39°W
Report Text: KNXP 230456Z AUTO 31007KT 10SM CLR 17/04 A3016 RMK AO2 SLP191 T01670044 $
Loading
Personal Weather Stations






























Interactive Weather Map New forecast layout! Learn more

10-Day Weather Forecast

Advertisements
Track Severe Weather on mobile